createdAt,value
2017-04-30T00:00:53.436Z,3.87
2017-04-30T00:03:21.751Z,3.00
2017-04-30T00:05:50.044Z,6.65
2017-04-30T00:08:18.335Z,2.88
2017-04-30T00:10:46.643Z,3.20
2017-04-30T00:13:14.938Z,2.90
2017-04-30T00:15:43.255Z,4.48
2017-04-30T00:18:12.281Z,8.83
2017-04-30T00:20:40.564Z,5.20
2017-04-30T00:23:09.611Z,4.42
2017-04-30T00:25:37.904Z,2.30
2017-04-30T00:28:06.226Z,3.48
2017-04-30T00:30:34.519Z,3.93
2017-04-30T00:33:02.808Z,2.78
2017-04-30T00:35:31.122Z,7.17
2017-04-30T00:37:59.407Z,3.07
2017-04-30T00:40:27.735Z,2.65
2017-04-30T00:42:56.015Z,3.48
2017-04-30T00:45:24.298Z,3.97
2017-04-30T00:47:52.598Z,5.82
2017-04-30T00:50:20.883Z,4.18
2017-04-30T00:52:49.193Z,3.03
2017-04-30T00:55:17.484Z,5.10
2017-04-30T00:57:45.767Z,2.80
2017-04-30T01:03:05.668Z,4.03
2017-04-30T01:05:33.987Z,3.90
2017-04-30T01:08:03.018Z,5.87
2017-04-30T01:10:32.051Z,4.43
2017-04-30T01:13:00.354Z,5.45
2017-04-30T01:15:28.644Z,10.20
2017-04-30T01:17:56.976Z,8.17
2017-04-30T01:20:25.272Z,6.73
2017-04-30T01:22:54.305Z,9.62
2017-04-30T01:25:22.616Z,6.23
2017-04-30T01:27:50.911Z,7.33
2017-04-30T01:30:19.228Z,9.40
2017-04-30T01:32:48.259Z,6.62
2017-04-30T01:35:16.557Z,7.92
2017-04-30T01:37:44.870Z,9.25
2017-04-30T01:40:13.497Z,11.17
2017-04-30T01:42:42.558Z,7.23
2017-04-30T01:45:10.844Z,7.37
2017-04-30T01:47:39.127Z,7.10
2017-04-30T01:50:08.185Z,9.78
2017-04-30T01:52:36.472Z,9.25
2017-04-30T01:55:04.792Z,6.75
2017-04-30T01:57:33.083Z,10.67
2017-04-30T02:00:01.375Z,10.83
2017-04-30T02:02:29.689Z,7.30
2017-04-30T02:04:58.721Z,9.15
2017-04-30T02:07:27.050Z,10.13
2017-04-30T02:09:56.089Z,10.05
2017-04-30T02:12:24.378Z,9.82
2017-04-30T02:14:52.691Z,8.97
2017-04-30T02:17:20.985Z,8.93
2017-04-30T02:19:49.271Z,9.30
2017-04-30T02:22:18.342Z,8.83
2017-04-30T02:24:46.636Z,10.67
2017-04-30T02:27:14.929Z,8.25
2017-04-30T02:29:43.247Z,10.48
2017-04-30T02:32:11.531Z,8.43
2017-04-30T02:34:39.831Z,10.03
2017-04-30T02:37:08.154Z,14.10
2017-04-30T02:39:36.442Z,6.15
2017-04-30T02:42:05.481Z,12.52
2017-04-30T02:44:33.807Z,7.30
2017-04-30T02:47:02.831Z,8.48
2017-04-30T02:49:31.152Z,7.83
2017-04-30T02:51:59.527Z,6.90
2017-04-30T02:54:27.821Z,5.72
2017-04-30T02:56:56.127Z,7.60
2017-04-30T02:59:24.436Z,6.87
2017-04-30T03:01:52.724Z,5.20
2017-04-30T03:04:21.016Z,4.10
2017-04-30T03:06:49.339Z,8.45
2017-04-30T03:09:17.627Z,8.67
2017-04-30T03:11:45.919Z,6.00
2017-04-30T03:14:14.979Z,11.38
2017-04-30T03:16:43.267Z,6.58
2017-04-30T03:19:11.551Z,6.62
2017-04-30T03:21:39.879Z,7.18
2017-04-30T03:24:08.911Z,6.27
2017-04-30T03:26:36.843Z,6.00
2017-04-30T03:29:05.160Z,8.45
2017-04-30T03:31:33.444Z,6.70
2017-04-30T03:34:01.736Z,6.73
2017-04-30T03:36:30.062Z,6.20
2017-04-30T03:39:10.066Z,8.12
2017-04-30T03:41:50.399Z,8.28
2017-04-30T03:44:31.228Z,10.27
2017-04-30T03:47:14.304Z,9.20
2017-04-30T03:49:54.454Z,5.92
2017-04-30T03:52:34.673Z,8.87
2017-04-30T03:55:15.382Z,8.13
2017-04-30T03:57:55.690Z,11.02
2017-04-30T04:00:36.526Z,14.95
2017-04-30T04:03:16.696Z,6.68
2017-04-30T04:05:56.775Z,6.20
2017-04-30T04:08:37.760Z,7.87
2017-04-30T04:11:17.887Z,5.08
2017-04-30T04:13:58.132Z,9.42
2017-04-30T04:16:38.440Z,12.67
2017-04-30T04:19:18.608Z,10.00
2017-04-30T04:21:58.823Z,5.03
2017-04-30T04:24:38.927Z,7.65
2017-04-30T04:27:19.030Z,11.45
2017-04-30T04:29:59.317Z,9.72
2017-04-30T04:32:39.359Z,13.67
2017-04-30T04:35:19.574Z,4.85
2017-04-30T04:37:59.618Z,11.27
2017-04-30T04:40:39.988Z,8.55
2017-04-30T04:43:20.842Z,6.97
2017-04-30T04:46:01.090Z,7.70
2017-04-30T04:48:41.127Z,10.12
2017-04-30T04:51:21.391Z,8.17
2017-04-30T04:54:01.328Z,6.07
2017-04-30T04:56:41.567Z,9.68
2017-04-30T04:59:21.715Z,6.28
2017-04-30T05:02:02.010Z,6.02
2017-04-30T05:04:42.850Z,12.42
2017-04-30T05:07:23.106Z,6.12
2017-04-30T05:10:03.183Z,6.15
2017-04-30T05:12:43.600Z,8.13
2017-04-30T05:15:23.610Z,5.58
2017-04-30T05:18:04.520Z,5.58
2017-04-30T05:20:44.669Z,3.20
2017-04-30T05:23:24.903Z,6.35
2017-04-30T05:26:05.154Z,6.60
2017-04-30T05:28:45.381Z,10.54
2017-04-30T05:31:25.432Z,6.36
2017-04-30T05:34:05.639Z,7.18
2017-04-30T05:36:46.495Z,8.80
2017-04-30T05:39:26.710Z,10.48
2017-04-30T05:42:06.853Z,11.20
2017-04-30T05:44:47.104Z,7.86
2017-04-30T05:47:27.107Z,15.14
2017-04-30T05:50:07.255Z,12.24
2017-04-30T05:52:48.015Z,15.88
2017-04-30T05:55:29.068Z,14.22
2017-04-30T05:58:09.175Z,18.74
2017-04-30T06:00:49.534Z,15.26
2017-04-30T06:03:30.461Z,15.16
2017-04-30T06:06:10.826Z,18.16
2017-04-30T06:08:50.939Z,16.80
2017-04-30T06:11:31.892Z,19.84
2017-04-30T06:14:11.951Z,22.14
2017-04-30T06:16:52.128Z,14.18
2017-04-30T06:19:33.002Z,16.50
2017-04-30T06:22:13.995Z,14.32
2017-04-30T06:24:54.135Z,17.24
2017-04-30T06:27:35.152Z,20.84
2017-04-30T06:30:15.217Z,16.14
2017-04-30T06:32:55.575Z,19.10
2017-04-30T06:35:35.650Z,25.34
2017-04-30T06:38:16.707Z,20.60
2017-04-30T06:40:57.560Z,20.78
2017-04-30T06:43:37.666Z,18.48
2017-04-30T06:46:17.715Z,17.80
2017-04-30T06:48:57.987Z,16.92
2017-04-30T06:51:38.171Z,20.44
2017-04-30T06:54:18.424Z,14.96
2017-04-30T06:56:58.512Z,18.38
2017-04-30T06:59:39.549Z,18.60
2017-04-30T07:02:19.611Z,18.00
2017-04-30T07:04:59.939Z,20.32
2017-04-30T07:07:39.999Z,15.98
2017-04-30T07:10:20.187Z,17.52
2017-04-30T07:13:00.275Z,16.08
2017-04-30T07:15:41.309Z,19.92
2017-04-30T07:18:21.421Z,15.78
2017-04-30T07:21:01.770Z,18.60
2017-04-30T07:23:42.619Z,20.20
2017-04-30T07:26:22.825Z,19.12
2017-04-30T07:29:02.925Z,18.64
2017-04-30T07:31:43.202Z,20.06
2017-04-30T07:34:23.207Z,19.98
2017-04-30T07:37:04.218Z,17.40
2017-04-30T07:39:44.462Z,16.66
2017-04-30T07:42:24.612Z,18.50
2017-04-30T07:44:52.913Z,19.72
2017-04-30T07:47:21.211Z,17.50
2017-04-30T07:49:49.525Z,18.72
2017-04-30T07:52:17.823Z,21.66
2017-04-30T07:54:46.859Z,22.82
2017-04-30T07:57:15.187Z,18.94
2017-04-30T07:59:43.484Z,16.90
2017-04-30T08:02:11.787Z,18.32
2017-04-30T08:04:40.108Z,19.22
2017-04-30T08:07:08.409Z,20.28
2017-04-30T08:09:36.707Z,18.02
2017-04-30T08:12:05.775Z,18.50
2017-04-30T08:14:34.073Z,17.60
2017-04-30T08:17:03.113Z,17.14
2017-04-30T08:19:31.443Z,17.20
2017-04-30T08:21:59.739Z,18.76
2017-04-30T08:24:28.779Z,17.42
2017-04-30T08:26:57.110Z,20.10
2017-04-30T08:29:26.156Z,15.54
2017-04-30T08:31:54.463Z,16.44
2017-04-30T08:34:22.784Z,19.48
2017-04-30T08:36:51.080Z,16.30
2017-04-30T08:39:19.380Z,13.78
2017-04-30T08:41:47.703Z,17.02
2017-04-30T08:44:16.738Z,17.12
2017-04-30T08:46:45.036Z,16.02
2017-04-30T08:49:13.367Z,14.94
2017-04-30T08:51:41.672Z,16.52
2017-04-30T08:54:09.969Z,15.14
2017-04-30T08:56:38.298Z,14.10
2017-04-30T08:59:06.595Z,15.20
2017-04-30T09:01:34.942Z,21.36
2017-04-30T09:04:04.010Z,15.66
2017-04-30T09:06:32.317Z,16.52
2017-04-30T09:09:01.358Z,15.02
2017-04-30T09:11:29.680Z,14.52
2017-04-30T09:13:57.976Z,16.14
2017-04-30T09:16:26.274Z,15.38
2017-04-30T09:18:54.599Z,13.02
2017-04-30T09:21:22.902Z,14.92
2017-04-30T09:23:51.199Z,14.24
2017-04-30T09:26:19.531Z,12.46
2017-04-30T09:28:47.824Z,13.42
2017-04-30T09:31:16.126Z,11.48
2017-04-30T09:33:45.195Z,13.26
2017-04-30T09:36:13.496Z,11.08
2017-04-30T09:38:41.792Z,10.62
2017-04-30T09:41:10.109Z,9.20
2017-04-30T09:43:38.406Z,16.72
2017-04-30T09:46:06.694Z,9.76
2017-04-30T09:48:35.023Z,11.50
2017-04-30T09:51:03.318Z,10.36
2017-04-30T09:53:31.622Z,13.76
2017-04-30T09:55:59.939Z,11.04
2017-04-30T09:58:28.970Z,10.46
2017-04-30T10:00:57.275Z,10.10
2017-04-30T10:03:25.595Z,11.14
2017-04-30T10:05:53.886Z,9.86
2017-04-30T10:08:22.175Z,9.20
2017-04-30T10:10:50.503Z,9.98
2017-04-30T10:13:18.795Z,11.16
2017-04-30T10:15:47.091Z,9.82
2017-04-30T10:18:15.415Z,10.48
2017-04-30T10:20:44.453Z,11.04
2017-04-30T10:23:12.751Z,10.36
2017-04-30T10:25:41.075Z,9.28
2017-04-30T10:28:09.370Z,7.92
2017-04-30T10:30:37.667Z,13.78
2017-04-30T10:33:06.001Z,9.64
2017-04-30T10:35:34.298Z,10.32
2017-04-30T10:38:02.592Z,10.68
2017-04-30T10:40:30.909Z,8.18
2017-04-30T10:42:59.944Z,8.12
2017-04-30T10:45:28.238Z,11.12
2017-04-30T10:47:56.554Z,7.78
2017-04-30T10:50:25.587Z,8.84
2017-04-30T10:52:53.875Z,7.66
2017-04-30T10:55:22.194Z,8.94
2017-04-30T10:57:50.486Z,7.96
2017-04-30T11:00:19.527Z,11.68
2017-04-30T11:02:47.851Z,8.40
2017-04-30T11:05:16.143Z,7.66
2017-04-30T11:07:45.174Z,12.46
2017-04-30T11:10:13.498Z,7.72
2017-04-30T11:12:41.784Z,7.74
2017-04-30T11:15:10.830Z,9.16
2017-04-30T11:17:39.150Z,8.08
2017-04-30T11:20:07.442Z,8.20
2017-04-30T11:22:36.475Z,6.92
2017-04-30T11:25:04.791Z,6.46
2017-04-30T11:27:33.083Z,6.68
2017-04-30T11:30:02.118Z,9.66
2017-04-30T11:32:30.441Z,5.48
2017-04-30T11:34:58.726Z,8.66
2017-04-30T11:37:27.755Z,7.64
2017-04-30T11:39:56.083Z,6.10
2017-04-30T11:42:24.375Z,6.16
2017-04-30T11:44:53.407Z,8.12
2017-04-30T11:47:21.726Z,7.32
2017-04-30T11:49:50.022Z,7.30
2017-04-30T11:52:19.058Z,6.94
2017-04-30T11:54:47.367Z,7.66
2017-04-30T11:57:15.654Z,5.12
2017-04-30T11:59:43.970Z,6.06
2017-04-30T12:02:12.267Z,6.76
2017-04-30T12:04:40.560Z,7.64
2017-04-30T12:07:08.890Z,12.54
2017-04-30T12:09:37.922Z,5.84
2017-04-30T12:12:06.216Z,6.06
2017-04-30T12:14:34.529Z,5.04
2017-04-30T12:17:03.563Z,7.76
2017-04-30T12:19:31.850Z,6.30
2017-04-30T12:22:00.170Z,9.00
2017-04-30T12:24:28.466Z,4.94
2017-04-30T12:26:57.502Z,8.08
2017-04-30T12:29:25.823Z,5.28
2017-04-30T12:31:54.115Z,4.70
2017-04-30T12:34:23.153Z,5.22
2017-04-30T12:36:51.478Z,5.68
2017-04-30T12:39:19.772Z,3.78
2017-04-30T12:41:48.803Z,5.84
2017-04-30T12:44:17.119Z,6.22
2017-04-30T12:46:45.418Z,5.04
2017-04-30T12:49:14.459Z,4.18
2017-04-30T12:51:42.770Z,5.44
2017-04-30T12:54:11.067Z,5.04
2017-04-30T12:56:40.144Z,5.32
2017-04-30T12:59:08.430Z,5.14
2017-04-30T13:01:37.471Z,4.68
2017-04-30T13:04:05.783Z,5.12
2017-04-30T13:06:34.076Z,3.70
2017-04-30T13:09:02.371Z,7.90
2017-04-30T13:11:31.442Z,5.06
2017-04-30T13:13:59.739Z,3.88
2017-04-30T13:16:28.770Z,5.40
2017-04-30T13:18:57.090Z,5.00
2017-04-30T13:21:25.799Z,5.12
2017-04-30T13:23:54.833Z,4.36
2017-04-30T13:28:56.764Z,4.80
2017-04-30T13:31:25.096Z,6.56
2017-04-30T13:33:54.128Z,5.64
2017-04-30T13:36:22.427Z,5.32
2017-04-30T13:38:50.744Z,5.48
2017-04-30T13:41:19.770Z,6.44
2017-04-30T13:43:48.064Z,4.68
2017-04-30T13:46:16.383Z,6.58
2017-04-30T13:48:44.676Z,4.78
2017-04-30T13:51:13.427Z,4.72
2017-04-30T13:53:41.743Z,6.12
2017-04-30T13:56:10.038Z,4.64
2017-04-30T13:58:39.070Z,7.28
2017-04-30T14:01:07.397Z,6.16
2017-04-30T14:03:36.428Z,5.04
2017-04-30T14:06:04.719Z,5.12
2017-04-30T14:08:33.031Z,4.06
2017-04-30T14:11:01.328Z,5.96
2017-04-30T14:13:30.363Z,4.70
2017-04-30T14:15:58.690Z,5.92
2017-04-30T14:18:26.985Z,5.52
2017-04-30T14:20:56.019Z,4.30
2017-04-30T14:23:24.331Z,4.02
2017-04-30T14:25:52.627Z,4.04
2017-04-30T14:28:20.923Z,5.32
2017-04-30T14:30:49.244Z,4.60
2017-04-30T14:33:17.532Z,6.38
2017-04-30T14:35:45.826Z,5.44
2017-04-30T14:38:14.171Z,4.48
2017-04-30T14:40:42.516Z,11.88
2017-04-30T14:43:11.546Z,4.54
2017-04-30T14:45:39.864Z,5.10
2017-04-30T14:48:08.150Z,5.84
2017-04-30T14:50:36.443Z,5.12
2017-04-30T14:53:05.504Z,6.82
2017-04-30T14:55:33.798Z,5.56
2017-04-30T14:58:02.085Z,5.46
2017-04-30T15:00:30.400Z,4.48
2017-04-30T15:02:58.698Z,3.40
2017-04-30T15:05:26.988Z,3.82
2017-04-30T15:07:56.059Z,4.74
2017-04-30T15:10:24.354Z,4.54
2017-04-30T15:12:52.647Z,3.92
2017-04-30T15:15:21.713Z,3.70
2017-04-30T15:17:50.000Z,3.22
2017-04-30T15:20:18.292Z,7.56
2017-04-30T15:22:47.355Z,3.76
2017-04-30T15:25:15.642Z,4.88
2017-04-30T15:27:43.927Z,3.40
2017-04-30T15:30:12.256Z,3.10
2017-04-30T15:32:40.542Z,3.90
2017-04-30T15:35:08.834Z,3.30
2017-04-30T15:37:37.151Z,4.24
2017-04-30T15:40:06.178Z,3.28
2017-04-30T15:42:34.476Z,7.90
2017-04-30T15:45:02.783Z,4.02
2017-04-30T15:47:31.076Z,3.38
2017-04-30T15:49:59.371Z,3.32
2017-04-30T15:52:27.687Z,3.96
2017-04-30T15:54:55.977Z,3.94
2017-04-30T15:57:24.276Z,3.44
2017-04-30T15:59:52.603Z,4.46
2017-04-30T16:02:21.635Z,2.92
2017-04-30T16:04:49.923Z,4.42
2017-04-30T16:07:18.246Z,4.04
2017-04-30T16:09:47.283Z,4.38
2017-04-30T16:12:15.573Z,3.36
2017-04-30T16:14:43.890Z,3.42
2017-04-30T16:17:12.187Z,4.52
2017-04-30T16:19:41.218Z,4.26
2017-04-30T16:22:09.532Z,4.82
2017-04-30T16:24:37.824Z,4.04
2017-04-30T16:27:06.109Z,3.58
2017-04-30T16:29:34.426Z,4.04
2017-04-30T16:32:02.719Z,3.38
2017-04-30T16:34:31.007Z,3.66
2017-04-30T16:36:59.324Z,3.34
2017-04-30T16:39:27.614Z,3.96
2017-04-30T16:41:56.646Z,8.14
2017-04-30T16:44:24.961Z,3.14
2017-04-30T16:46:53.255Z,4.66
2017-04-30T16:49:21.552Z,3.40
2017-04-30T16:51:49.876Z,6.06
2017-04-30T16:54:18.178Z,3.06
2017-04-30T16:56:46.467Z,3.22
2017-04-30T16:59:14.787Z,3.38
2017-04-30T17:01:43.821Z,3.90
2017-04-30T17:04:12.111Z,2.76
2017-04-30T17:06:40.434Z,3.84
2017-04-30T17:09:09.463Z,3.56
2017-04-30T17:11:37.754Z,2.80
2017-04-30T17:14:06.067Z,3.20
2017-04-30T17:16:34.354Z,3.12
2017-04-30T17:19:02.643Z,5.90
2017-04-30T17:21:30.956Z,3.46
2017-04-30T17:23:59.255Z,3.48
2017-04-30T17:26:27.554Z,3.18
2017-04-30T17:28:56.621Z,5.38
2017-04-30T17:31:24.914Z,3.28
2017-04-30T17:33:53.945Z,2.76
2017-04-30T17:36:22.266Z,6.52
2017-04-30T17:38:50.555Z,2.88
2017-04-30T17:41:18.847Z,3.20
2017-04-30T17:43:47.911Z,3.16
2017-04-30T17:46:16.201Z,3.16
2017-04-30T17:48:44.501Z,4.90
2017-04-30T17:51:13.567Z,4.56
2017-04-30T17:53:41.851Z,2.94
2017-04-30T17:56:10.142Z,2.56
2017-04-30T17:58:38.462Z,6.74
2017-04-30T18:01:06.754Z,3.38
2017-04-30T18:03:35.045Z,3.08
2017-04-30T18:06:03.364Z,2.74
2017-04-30T18:08:32.403Z,4.14
2017-04-30T18:11:00.690Z,3.54
2017-04-30T18:13:29.003Z,3.62
2017-04-30T18:15:57.307Z,11.26
2017-04-30T18:18:25.601Z,3.40
2017-04-30T18:20:53.926Z,3.32
2017-04-30T18:23:22.216Z,3.30
2017-04-30T18:25:51.248Z,5.38
2017-04-30T18:28:19.575Z,2.02
2017-04-30T18:30:47.871Z,4.20
2017-04-30T18:33:16.899Z,2.74
2017-04-30T18:35:45.214Z,3.22
2017-04-30T18:38:13.503Z,5.28
2017-04-30T18:40:41.800Z,5.38
2017-04-30T18:43:10.853Z,3.24
2017-04-30T18:45:39.147Z,3.56
2017-04-30T18:48:07.435Z,3.92
2017-04-30T18:50:35.769Z,3.44
2017-04-30T18:53:04.069Z,2.70
2017-04-30T18:55:32.365Z,3.12
2017-04-30T18:58:00.689Z,4.04
2017-04-30T19:00:28.980Z,3.72
2017-04-30T19:02:57.328Z,2.60
2017-04-30T19:05:25.971Z,3.26
2017-04-30T19:07:54.263Z,3.48
2017-04-30T19:10:22.563Z,3.28
2017-04-30T19:12:50.885Z,3.28
2017-04-30T19:15:19.184Z,3.32
2017-04-30T19:17:47.484Z,3.10
2017-04-30T19:20:15.806Z,4.30
2017-04-30T19:22:44.100Z,2.86
2017-04-30T19:25:12.397Z,3.84
2017-04-30T19:27:40.717Z,5.22
2017-04-30T19:30:09.754Z,4.14
2017-04-30T19:32:38.048Z,4.64
2017-04-30T19:35:06.378Z,4.20
2017-04-30T19:37:34.680Z,3.60
2017-04-30T19:40:02.975Z,4.64
2017-04-30T19:42:31.323Z,3.52
2017-04-30T19:44:59.620Z,4.10
2017-04-30T19:47:28.657Z,3.98
2017-04-30T19:49:56.968Z,5.00
2017-04-30T19:52:25.278Z,3.76
2017-04-30T19:54:53.580Z,5.60
2017-04-30T19:57:21.903Z,5.88
2017-04-30T19:59:50.199Z,3.52
2017-04-30T20:02:19.235Z,4.78
2017-04-30T20:04:47.564Z,3.72
2017-04-30T20:07:16.607Z,4.06
2017-04-30T20:09:44.899Z,4.22
2017-04-30T20:12:13.218Z,4.26
2017-04-30T20:14:42.256Z,4.12
2017-04-30T20:17:10.552Z,3.56
2017-04-30T20:19:38.889Z,4.44
2017-04-30T20:22:07.179Z,3.70
2017-04-30T20:24:35.475Z,4.30
2017-04-30T20:27:03.810Z,3.78
2017-04-30T20:29:32.843Z,4.76
2017-04-30T20:32:01.139Z,6.46
2017-04-30T20:34:29.468Z,3.94
2017-04-30T20:36:57.759Z,4.28
2017-04-30T20:39:26.056Z,6.90
2017-04-30T20:41:54.383Z,4.78
2017-04-30T20:44:22.679Z,4.68
2017-04-30T20:46:50.967Z,5.20
2017-04-30T20:49:20.036Z,6.02
2017-04-30T20:51:48.330Z,4.50
2017-04-30T20:54:16.627Z,5.84
2017-04-30T20:56:44.950Z,4.70
2017-04-30T20:59:13.251Z,5.06
2017-04-30T21:01:41.553Z,5.24
2017-04-30T21:04:09.877Z,4.18
2017-04-30T21:06:38.170Z,4.48
2017-04-30T21:09:06.463Z,5.48
2017-04-30T21:11:35.534Z,4.08
2017-04-30T21:14:03.828Z,4.44
2017-04-30T21:16:32.127Z,5.22
2017-04-30T21:19:01.187Z,10.26
2017-04-30T21:21:29.479Z,5.14
2017-04-30T21:23:58.518Z,5.44
2017-04-30T21:26:26.851Z,6.88
2017-04-30T21:28:54.380Z,7.40
2017-04-30T21:31:22.678Z,4.52
2017-04-30T21:33:51.008Z,5.24
2017-04-30T21:36:19.305Z,7.40
2017-04-30T21:38:47.598Z,6.34
2017-04-30T21:41:15.922Z,6.78
2017-04-30T21:43:44.215Z,5.88
2017-04-30T21:46:12.502Z,5.76
2017-04-30T21:48:40.812Z,4.86
2017-04-30T21:51:09.139Z,4.78
2017-04-30T21:53:37.427Z,5.24
2017-04-30T21:56:05.739Z,5.08
2017-04-30T21:58:34.031Z,6.34
2017-04-30T22:01:02.398Z,5.82
2017-04-30T22:03:30.724Z,5.82
2017-04-30T22:05:59.026Z,5.26
2017-04-30T22:08:27.320Z,5.06
2017-04-30T22:10:55.634Z,4.94
2017-04-30T22:13:24.660Z,5.64
2017-04-30T22:15:52.951Z,6.14
2017-04-30T22:18:21.267Z,4.88
2017-04-30T22:20:49.557Z,7.06
2017-04-30T22:23:17.857Z,6.26
2017-04-30T22:25:46.179Z,5.94
2017-04-30T22:28:14.471Z,6.26
2017-04-30T22:30:42.755Z,7.16
2017-04-30T22:33:11.076Z,6.30
2017-04-30T22:35:40.108Z,6.40
2017-04-30T22:38:08.394Z,6.86
2017-04-30T22:40:36.718Z,6.82
2017-04-30T22:43:05.013Z,6.00
2017-04-30T22:45:34.039Z,5.90
2017-04-30T22:48:02.350Z,6.88
2017-04-30T22:50:30.639Z,6.96
2017-04-30T22:52:58.931Z,13.40
2017-04-30T22:55:27.247Z,6.66
2017-04-30T22:57:55.534Z,6.84
2017-04-30T23:00:23.826Z,7.64
2017-04-30T23:02:52.897Z,6.12
2017-04-30T23:05:21.186Z,9.98
2017-04-30T23:07:49.471Z,6.56
2017-04-30T23:10:18.539Z,6.92
2017-04-30T23:12:46.844Z,5.16
2017-04-30T23:15:15.130Z,8.50
2017-04-30T23:17:44.187Z,7.30
2017-04-30T23:20:12.484Z,5.60
2017-04-30T23:22:40.802Z,6.80
2017-04-30T23:25:09.123Z,9.62
2017-04-30T23:27:37.415Z,6.64
2017-04-30T23:30:05.703Z,6.44
2017-04-30T23:32:34.027Z,6.58
2017-04-30T23:35:02.315Z,6.88
2017-04-30T23:37:30.607Z,6.84
2017-04-30T23:39:58.935Z,8.10
2017-04-30T23:42:26.458Z,7.14
2017-04-30T23:44:54.752Z,8.88
2017-04-30T23:47:23.808Z,6.58
2017-04-30T23:49:52.103Z,7.54
2017-04-30T23:52:20.396Z,6.00
2017-04-30T23:54:48.715Z,8.98
2017-04-30T23:57:17.006Z,6.96
2017-04-30T23:59:45.296Z,8.44
